sensor_id;sensor_type;location;lat;lon;timestamp;pressure;altitude;pressure_sealevel;temperature;humidity
27712;BME280;2377;51.734;8.950;2023-02-22T00:01:41;97828.81;;;8.73;100.00
27712;BME280;2377;51.734;8.950;2023-02-22T00:04:16;97831.38;;;8.73;100.00
27712;BME280;2377;51.734;8.950;2023-02-22T00:06:46;97823.72;;;8.73;100.00
27712;BME280;2377;51.734;8.950;2023-02-22T00:09:14;97820.19;;;8.74;100.00
27712;BME280;2377;51.734;8.950;2023-02-22T00:11:46;97823.72;;;8.73;100.00
27712;BME280;2377;51.734;8.950;2023-02-22T00:14:14;97816.09;;;8.73;100.00
27712;BME280;2377;51.734;8.950;2023-02-22T00:16:45;97807.25;;;8.68;100.00
27712;BME280;2377;51.734;8.950;2023-02-22T00:19:12;97810.00;;;8.67;100.00
27712;BME280;2377;51.734;8.950;2023-02-22T00:21:39;97806.69;;;8.66;100.00
27712;BME280;2377;51.734;8.950;2023-02-22T00:24:06;97808.03;;;8.69;100.00
27712;BME280;2377;51.734;8.950;2023-02-22T00:26:49;97804.13;;;8.66;100.00
27712;BME280;2377;51.734;8.950;2023-02-22T00:29:17;97808.63;;;8.64;100.00
27712;BME280;2377;51.734;8.950;2023-02-22T00:31:44;97801.41;;;8.61;100.00
27712;BME280;2377;51.734;8.950;2023-02-22T00:34:13;97816.88;;;8.60;100.00
27712;BME280;2377;51.734;8.950;2023-02-22T00:36:45;97809.06;;;8.55;100.00
27712;BME280;2377;51.734;8.950;2023-02-22T00:39:12;97808.88;;;8.56;100.00
27712;BME280;2377;51.734;8.950;2023-02-22T00:41:39;97808.28;;;8.54;100.00
27712;BME280;2377;51.734;8.950;2023-02-22T00:44:06;97803.97;;;8.55;100.00
27712;BME280;2377;51.734;8.950;2023-02-22T00:46:34;97805.13;;;8.52;100.00
27712;BME280;2377;51.734;8.950;2023-02-22T00:49:01;97801.00;;;8.51;100.00
27712;BME280;2377;51.734;8.950;2023-02-22T00:51:30;97799.47;;;8.50;100.00
27712;BME280;2377;51.734;8.950;2023-02-22T00:53:58;97798.47;;;8.51;100.00
27712;BME280;2377;51.734;8.950;2023-02-22T00:56:25;97794.38;;;8.50;100.00
27712;BME280;2377;51.734;8.950;2023-02-22T00:58:52;97790.44;;;8.54;100.00
27712;BME280;2377;51.734;8.950;2023-02-22T01:01:19;97787.31;;;8.52;100.00
27712;BME280;2377;51.734;8.950;2023-02-22T01:03:50;97788.28;;;8.51;100.00
27712;BME280;2377;51.734;8.950;2023-02-22T01:06:17;97780.25;;;8.48;100.00
27712;BME280;2377;51.734;8.950;2023-02-22T01:08:46;97780.84;;;8.50;100.00
27712;BME280;2377;51.734;8.950;2023-02-22T01:11:15;97786.53;;;8.45;100.00
27712;BME280;2377;51.734;8.950;2023-02-22T01:13:42;97781.22;;;8.46;100.00
27712;BME280;2377;51.734;8.950;2023-02-22T01:16:10;97784.00;;;8.45;100.00
27712;BME280;2377;51.734;8.950;2023-02-22T01:18:37;97774.22;;;8.42;100.00
27712;BME280;2377;51.734;8.950;2023-02-22T01:21:06;97774.38;;;8.47;100.00
27712;BME280;2377;51.734;8.950;2023-02-22T01:23:33;97775.94;;;8.48;100.00
27712;BME280;2377;51.734;8.950;2023-02-22T01:26:00;97777.13;;;8.52;100.00
27712;BME280;2377;51.734;8.950;2023-02-22T01:28:29;97774.38;;;8.54;100.00
27712;BME280;2377;51.734;8.950;2023-02-22T01:30:56;97769.28;;;8.54;100.00
27712;BME280;2377;51.734;8.950;2023-02-22T01:33:23;97763.00;;;8.56;100.00
27712;BME280;2377;51.734;8.950;2023-02-22T01:35:51;97761.25;;;8.57;100.00
27712;BME280;2377;51.734;8.950;2023-02-22T01:38:19;97759.28;;;8.59;100.00
27712;BME280;2377;51.734;8.950;2023-02-22T01:40:50;97756.91;;;8.57;100.00
27712;BME280;2377;51.734;8.950;2023-02-22T01:43:21;97758.69;;;8.57;100.00
27712;BME280;2377;51.734;8.950;2023-02-22T01:46:00;97757.91;;;8.56;100.00
27712;BME280;2377;51.734;8.950;2023-02-22T01:48:37;97757.31;;;8.54;100.00
27712;BME280;2377;51.734;8.950;2023-02-22T01:51:11;97756.16;;;8.57;100.00
27712;BME280;2377;51.734;8.950;2023-02-22T01:53:49;97747.72;;;8.56;100.00
27712;BME280;2377;51.734;8.950;2023-02-22T01:56:20;97740.09;;;8.56;100.00
27712;BME280;2377;51.734;8.950;2023-02-22T01:58:52;97748.28;;;8.58;100.00
27712;BME280;2377;51.734;8.950;2023-02-22T02:01:23;97743.16;;;8.65;100.00
27712;BME280;2377;51.734;8.950;2023-02-22T02:03:55;97740.25;;;8.61;100.00
27712;BME280;2377;51.734;8.950;2023-02-22T02:06:24;97740.25;;;8.61;100.00
27712;BME280;2377;51.734;8.950;2023-02-22T02:09:02;97737.50;;;8.63;100.00
27712;BME280;2377;51.734;8.950;2023-02-22T02:11:32;97733.97;;;8.64;100.00
27712;BME280;2377;51.734;8.950;2023-02-22T02:13:59;97736.34;;;8.65;100.00
27712;BME280;2377;51.734;8.950;2023-02-22T02:16:38;97736.34;;;8.65;100.00
27712;BME280;2377;51.734;8.950;2023-02-22T02:19:15;97740.84;;;8.63;100.00
27712;BME280;2377;51.734;8.950;2023-02-22T02:22:09;97728.09;;;8.63;100.00
27712;BME280;2377;51.734;8.950;2023-02-22T02:25:17;97724.97;;;8.61;100.00
27712;BME280;2377;51.734;8.950;2023-02-22T02:31:50;97723.19;;;8.62;100.00
27712;BME280;2377;51.734;8.950;2023-02-22T02:34:30;97713.78;;;8.62;100.00
27712;BME280;2377;51.734;8.950;2023-02-22T02:37:09;97711.25;;;8.62;100.00
27712;BME280;2377;51.734;8.950;2023-02-22T02:39:45;97705.75;;;8.65;100.00
27712;BME280;2377;51.734;8.950;2023-02-22T02:42:21;97712.41;;;8.66;100.00
27712;BME280;2377;51.734;8.950;2023-02-22T02:44:57;97708.31;;;8.65;100.00
27712;BME280;2377;51.734;8.950;2023-02-22T02:47:33;97705.19;;;8.63;100.00
27712;BME280;2377;51.734;8.950;2023-02-22T02:50:08;97703.41;;;8.64;100.00
27712;BME280;2377;51.734;8.950;2023-02-22T02:52:38;97699.66;;;8.66;100.00
27712;BME280;2377;51.734;8.950;2023-02-22T02:55:09;97697.69;;;8.68;100.00
27712;BME280;2377;51.734;8.950;2023-02-22T02:57:37;97691.59;;;8.70;100.00
27712;BME280;2377;51.734;8.950;2023-02-22T03:00:07;97692.59;;;8.68;100.00
27712;BME280;2377;51.734;8.950;2023-02-22T03:03:05;97687.50;;;8.68;100.00
27712;BME280;2377;51.734;8.950;2023-02-22T03:06:09;97684.97;;;8.68;100.00
27712;BME280;2377;51.734;8.950;2023-02-22T03:08:44;97687.09;;;8.72;100.00
27712;BME280;2377;51.734;8.950;2023-02-22T03:11:19;97682.41;;;8.68;100.00
27712;BME280;2377;51.734;8.950;2023-02-22T03:13:53;97678.50;;;8.66;100.00
27712;BME280;2377;51.734;8.950;2023-02-22T03:16:32;97681.84;;;8.66;100.00
27712;BME280;2377;51.734;8.950;2023-02-22T03:19:09;97674.38;;;8.65;100.00
27712;BME280;2377;51.734;8.950;2023-02-22T03:21:47;97674.78;;;8.68;100.00
27712;BME280;2377;51.734;8.950;2023-02-22T03:24:26;97676.13;;;8.71;100.00
27712;BME280;2377;51.734;8.950;2023-02-22T03:27:01;97678.69;;;8.71;100.00
27712;BME280;2377;51.734;8.950;2023-02-22T03:29:38;97673.16;;;8.74;100.00
27712;BME280;2377;51.734;8.950;2023-02-22T03:32:14;97672.97;;;8.76;100.00
27712;BME280;2377;51.734;8.950;2023-02-22T03:34:48;97670.44;;;8.76;100.00
27712;BME280;2377;51.734;8.950;2023-02-22T03:37:23;97671.97;;;8.77;100.00
27712;BME280;2377;51.734;8.950;2023-02-22T03:39:55;97675.94;;;8.73;100.00
27712;BME280;2377;51.734;8.950;2023-02-22T03:42:30;97672.38;;;8.74;100.00
27712;BME280;2377;51.734;8.950;2023-02-22T03:45:03;97680.63;;;8.76;100.00
27712;BME280;2377;51.734;8.950;2023-02-22T03:47:40;97681.03;;;8.73;100.00
27712;BME280;2377;51.734;8.950;2023-02-22T03:50:14;97674.34;;;8.72;100.00
27712;BME280;2377;51.734;8.950;2023-02-22T03:52:44;97672.38;;;8.74;100.00
27712;BME280;2377;51.734;8.950;2023-02-22T03:55:14;97675.31;;;8.77;100.00
27712;BME280;2377;51.734;8.950;2023-02-22T03:57:46;97678.66;;;8.78;100.00
27712;BME280;2377;51.734;8.950;2023-02-22T04:00:19;97677.66;;;8.79;100.00
27712;BME280;2377;51.734;8.950;2023-02-22T04:02:47;97672.38;;;8.74;100.00
27712;BME280;2377;51.734;8.950;2023-02-22T04:05:16;97674.94;;;8.74;100.00
27712;BME280;2377;51.734;8.950;2023-02-22T04:07:43;97670.84;;;8.73;100.00
27712;BME280;2377;51.734;8.950;2023-02-22T04:10:11;97676.72;;;8.73;100.00
27712;BME280;2377;51.734;8.950;2023-02-22T04:12:39;97676.13;;;8.71;100.00
27712;BME280;2377;51.734;8.950;2023-02-22T04:15:10;97669.25;;;8.72;100.00
27712;BME280;2377;51.734;8.950;2023-02-22T04:17:37;97674.34;;;8.72;100.00
27712;BME280;2377;51.734;8.950;2023-02-22T04:20:05;97672.81;;;8.71;100.00
27712;BME280;2377;51.734;8.950;2023-02-22T04:22:34;97673.59;;;8.71;100.00
27712;BME280;2377;51.734;8.950;2023-02-22T04:25:01;97672.81;;;8.71;100.00
27712;BME280;2377;51.734;8.950;2023-02-22T04:27:28;97670.25;;;8.71;100.00
27712;BME280;2377;51.734;8.950;2023-02-22T04:29:55;97670.03;;;8.72;100.00
27712;BME280;2377;51.734;8.950;2023-02-22T04:32:22;97667.28;;;8.74;100.00
27712;BME280;2377;51.734;8.950;2023-02-22T04:34:49;97673.94;;;8.75;100.00
27712;BME280;2377;51.734;8.950;2023-02-22T04:37:16;97664.75;;;8.74;100.00
27712;BME280;2377;51.734;8.950;2023-02-22T04:39:45;97659.84;;;8.72;100.00
27712;BME280;2377;51.734;8.950;2023-02-22T04:42:12;97668.50;;;8.71;100.00
27712;BME280;2377;51.734;8.950;2023-02-22T04:44:39;97664.59;;;8.68;100.00
27712;BME280;2377;51.734;8.950;2023-02-22T04:47:06;97672.81;;;8.71;100.00
27712;BME280;2377;51.734;8.950;2023-02-22T04:49:33;97671.22;;;8.70;100.00
27712;BME280;2377;51.734;8.950;2023-02-22T04:52:00;97665.34;;;8.69;100.00
27712;BME280;2377;51.734;8.950;2023-02-22T04:54:27;97655.94;;;8.70;100.00
27712;BME280;2377;51.734;8.950;2023-02-22T04:56:55;97662.63;;;8.71;100.00
27712;BME280;2377;51.734;8.950;2023-02-22T04:59:23;97657.53;;;8.71;100.00
27712;BME280;2377;51.734;8.950;2023-02-22T05:01:50;97662.03;;;8.68;100.00
27712;BME280;2377;51.734;8.950;2023-02-22T05:04:17;97653.63;;;8.68;100.00
27712;BME280;2377;51.734;8.950;2023-02-22T05:06:44;97648.72;;;8.66;100.00
27712;BME280;2377;51.734;8.950;2023-02-22T05:09:12;97651.69;;;8.63;100.00
27712;BME280;2377;51.734;8.950;2023-02-22T05:11:39;97655.19;;;8.62;100.00
27712;BME280;2377;51.734;8.950;2023-02-22T05:14:08;97645.00;;;8.62;100.00
27712;BME280;2377;51.734;8.950;2023-02-22T05:16:35;97650.09;;;8.62;100.00
27712;BME280;2377;51.734;8.950;2023-02-22T05:19:02;97650.25;;;8.67;100.00
27712;BME280;2377;51.734;8.950;2023-02-22T05:21:30;97643.81;;;8.65;100.00
27712;BME280;2377;51.734;8.950;2023-02-22T05:23:57;97641.25;;;8.65;100.00
27712;BME280;2377;51.734;8.950;2023-02-22T05:26:24;97640.31;;;8.59;100.00
27712;BME280;2377;51.734;8.950;2023-02-22T05:28:51;97636.59;;;8.62;100.00
27712;BME280;2377;51.734;8.950;2023-02-22T05:31:19;97628.75;;;8.63;100.00
27712;BME280;2377;51.734;8.950;2023-02-22T05:33:46;97638.94;;;8.63;100.00
27712;BME280;2377;51.734;8.950;2023-02-22T05:36:14;97643.03;;;8.64;100.00
27712;BME280;2377;51.734;8.950;2023-02-22T05:38:41;97628.94;;;8.62;100.00
27712;BME280;2377;51.734;8.950;2023-02-22T05:41:11;97629.94;;;8.61;100.00
27712;BME280;2377;51.734;8.950;2023-02-22T05:43:39;97634.44;;;8.65;100.00
27712;BME280;2377;51.734;8.950;2023-02-22T05:46:07;97639.91;;;8.62;100.00
27712;BME280;2377;51.734;8.950;2023-02-22T05:48:35;97639.91;;;8.62;100.00
27712;BME280;2377;51.734;8.950;2023-02-22T05:51:03;97633.03;;;8.63;100.00
27712;BME280;2377;51.734;8.950;2023-02-22T05:53:30;97628.16;;;8.61;100.00
27712;BME280;2377;51.734;8.950;2023-02-22T05:55:58;97629.72;;;8.62;100.00
27712;BME280;2377;51.734;8.950;2023-02-22T05:58:25;97629.72;;;8.62;100.00
27712;BME280;2377;51.734;8.950;2023-02-22T06:00:52;97623.25;;;8.60;100.00
27712;BME280;2377;51.734;8.950;2023-02-22T06:03:19;97625.44;;;8.56;100.00
27712;BME280;2377;51.734;8.950;2023-02-22T06:05:48;97630.94;;;8.53;100.00
27712;BME280;2377;51.734;8.950;2023-02-22T06:08:15;97626.84;;;8.52;100.00
27712;BME280;2377;51.734;8.950;2023-02-22T06:10:42;97625.84;;;8.53;100.00
27712;BME280;2377;51.734;8.950;2023-02-22T06:13:10;97625.25;;;8.51;100.00
27712;BME280;2377;51.734;8.950;2023-02-22T06:15:37;97622.53;;;8.46;100.00
27712;BME280;2377;51.734;8.950;2023-02-22T06:18:04;97620.22;;;8.44;100.00
27712;BME280;2377;51.734;8.950;2023-02-22T06:20:31;97621.97;;;8.44;100.00
27712;BME280;2377;51.734;8.950;2023-02-22T06:23:01;97619.22;;;8.45;100.00
27712;BME280;2377;51.734;8.950;2023-02-22T06:25:30;97614.13;;;8.45;100.00
27712;BME280;2377;51.734;8.950;2023-02-22T06:27:58;97615.91;;;8.45;100.00
27712;BME280;2377;51.734;8.950;2023-02-22T06:30:27;97616.66;;;8.39;100.00
27712;BME280;2377;51.734;8.950;2023-02-22T06:32:54;97625.31;;;8.38;100.00
27712;BME280;2377;51.734;8.950;2023-02-22T06:35:22;97620.59;;;8.35;100.00
27712;BME280;2377;51.734;8.950;2023-02-22T06:37:49;97621.97;;;8.37;100.00
27712;BME280;2377;51.734;8.950;2023-02-22T06:40:18;97625.69;;;8.35;100.00
27712;BME280;2377;51.734;8.950;2023-02-22T06:42:47;97620.41;;;8.30;100.00
27712;BME280;2377;51.734;8.950;2023-02-22T06:45:16;97627.88;;;8.31;100.00
27712;BME280;2377;51.734;8.950;2023-02-22T06:47:44;97624.75;;;8.29;100.00
27712;BME280;2377;51.734;8.950;2023-02-22T06:50:21;97629.84;;;8.29;100.00
27712;BME280;2377;51.734;8.950;2023-02-22T06:52:49;97629.66;;;8.31;100.00
27712;BME280;2377;51.734;8.950;2023-02-22T06:55:20;97632.19;;;8.31;100.00
27712;BME280;2377;51.734;8.950;2023-02-22T06:57:47;97630.22;;;8.33;100.00
27712;BME280;2377;51.734;8.950;2023-02-22T07:00:16;97632.78;;;8.33;100.00
27712;BME280;2377;51.734;8.950;2023-02-22T07:02:44;97631.78;;;8.34;100.00
27712;BME280;2377;51.734;8.950;2023-02-22T07:05:12;97629.81;;;8.36;100.00
27712;BME280;2377;51.734;8.950;2023-02-22T07:07:39;97634.13;;;8.35;100.00
27712;BME280;2377;51.734;8.950;2023-02-22T07:10:13;97635.69;;;8.36;100.00
27712;BME280;2377;51.734;8.950;2023-02-22T07:12:42;97629.41;;;8.32;100.00
27712;BME280;2377;51.734;8.950;2023-02-22T07:15:09;97629.81;;;8.36;100.00
27712;BME280;2377;51.734;8.950;2023-02-22T07:17:36;97631.78;;;8.34;100.00
27712;BME280;2377;51.734;8.950;2023-02-22T07:20:07;97632.16;;;8.37;100.00
27712;BME280;2377;51.734;8.950;2023-02-22T07:22:36;97639.59;;;8.39;100.00
27712;BME280;2377;51.734;8.950;2023-02-22T07:25:05;97633.56;;;8.40;100.00
27712;BME280;2377;51.734;8.950;2023-02-22T07:27:35;97639.00;;;8.43;100.00
27712;BME280;2377;51.734;8.950;2023-02-22T07:30:06;97637.44;;;8.49;100.00
27712;BME280;2377;51.734;8.950;2023-02-22T07:32:33;97635.84;;;8.48;100.00
27712;BME280;2377;51.734;8.950;2023-02-22T07:35:00;97638.22;;;8.50;100.00
27712;BME280;2377;51.734;8.950;2023-02-22T07:37:27;97639.00;;;8.50;100.00
27712;BME280;2377;51.734;8.950;2023-02-22T07:39:55;97641.53;;;8.50;100.00
27712;BME280;2377;51.734;8.950;2023-02-22T07:42:22;97635.09;;;8.48;100.00
27712;BME280;2377;51.734;8.950;2023-02-22T07:44:49;97636.84;;;8.54;100.00
27712;BME280;2377;51.734;8.950;2023-02-22T07:47:17;97637.97;;;8.58;100.00
27712;BME280;2377;51.734;8.950;2023-02-22T07:49:45;97636.78;;;8.60;100.00
27712;BME280;2377;51.734;8.950;2023-02-22T07:52:12;97636.78;;;8.60;100.00
27712;BME280;2377;51.734;8.950;2023-02-22T07:54:39;97635.38;;;8.64;100.00
27712;BME280;2377;51.734;8.950;2023-02-22T07:57:06;97632.25;;;8.62;100.00
27712;BME280;2377;51.734;8.950;2023-02-22T07:59:33;97632.25;;;8.62;100.00
27712;BME280;2377;51.734;8.950;2023-02-22T08:02:00;97626.78;;;8.65;100.00
27712;BME280;2377;51.734;8.950;2023-02-22T08:04:29;97635.38;;;8.64;100.00
27712;BME280;2377;51.734;8.950;2023-02-22T08:06:56;97635.97;;;8.66;100.00
27712;BME280;2377;51.734;8.950;2023-02-22T08:09:23;97635.19;;;8.66;100.00
27712;BME280;2377;51.734;8.950;2023-02-22T08:11:50;97632.66;;;8.66;100.00
27712;BME280;2377;51.734;8.950;2023-02-22T08:14:17;97626.13;;;8.70;100.00
27712;BME280;2377;51.734;8.950;2023-02-22T08:16:44;97633.13;;;8.81;100.00
27712;BME280;2377;51.734;8.950;2023-02-22T08:19:11;97633.31;;;8.86;100.00
27712;BME280;2377;51.734;8.950;2023-02-22T08:21:40;97624.25;;;8.91;100.00
27712;BME280;2377;51.734;8.950;2023-02-22T08:24:07;97628.56;;;8.97;100.00
27712;BME280;2377;51.734;8.950;2023-02-22T08:26:34;97623.81;;;9.00;100.00
27712;BME280;2377;51.734;8.950;2023-02-22T08:29:01;97614.00;;;9.04;100.00
27712;BME280;2377;51.734;8.950;2023-02-22T08:31:28;97622.38;;;9.11;100.00
27712;BME280;2377;51.734;8.950;2023-02-22T08:33:55;97621.56;;;9.17;100.00
27712;BME280;2377;51.734;8.950;2023-02-22T08:36:23;97614.47;;;9.19;100.00
27712;BME280;2377;51.734;8.950;2023-02-22T08:38:51;97623.44;;;9.22;100.00
27712;BME280;2377;51.734;8.950;2023-02-22T08:41:18;97616.00;;;9.27;100.00
27712;BME280;2377;51.734;8.950;2023-02-22T08:43:46;97622.00;;;9.32;100.00
27712;BME280;2377;51.734;8.950;2023-02-22T08:46:13;97617.91;;;9.31;100.00
27712;BME280;2377;51.734;8.950;2023-02-22T08:48:49;97618.50;;;9.34;100.00
27712;BME280;2377;51.734;8.950;2023-02-22T08:51:17;97614.50;;;9.38;100.00
27712;BME280;2377;51.734;8.950;2023-02-22T08:53:44;97610.75;;;9.40;100.00
27712;BME280;2377;51.734;8.950;2023-02-22T08:56:12;97618.16;;;9.48;100.00
27712;BME280;2377;51.734;8.950;2023-02-22T08:58:39;97610.59;;;9.60;100.00
27712;BME280;2377;51.734;8.950;2023-02-22T09:01:06;97609.28;;;9.76;100.00
27712;BME280;2377;51.734;8.950;2023-02-22T09:03:34;97610.53;;;9.85;100.00
27712;BME280;2377;51.734;8.950;2023-02-22T09:06:01;97610.47;;;9.92;100.00
27712;BME280;2377;51.734;8.950;2023-02-22T09:08:29;97604.16;;;9.94;100.00
27712;BME280;2377;51.734;8.950;2023-02-22T09:10:56;97612.53;;;10.02;100.00
27712;BME280;2377;51.734;8.950;2023-02-22T09:13:24;97611.25;;;10.11;100.00
27712;BME280;2377;51.734;8.950;2023-02-22T09:15:51;97603.75;;;10.16;100.00
27712;BME280;2377;51.734;8.950;2023-02-22T09:18:19;97613.53;;;10.19;100.00
27712;BME280;2377;51.734;8.950;2023-02-22T09:20:46;97607.72;;;10.30;100.00
27712;BME280;2377;51.734;8.950;2023-02-22T09:23:13;97607.09;;;10.35;100.00
27712;BME280;2377;51.734;8.950;2023-02-22T09:25:40;97604.00;;;10.45;100.00
27712;BME280;2377;51.734;8.950;2023-02-22T09:28:07;97596.28;;;10.51;100.00
27712;BME280;2377;51.734;8.950;2023-02-22T09:30:36;97589.63;;;10.62;100.00
27712;BME280;2377;51.734;8.950;2023-02-22T09:33:06;97587.34;;;10.72;100.00
27712;BME280;2377;51.734;8.950;2023-02-22T09:35:34;97586.81;;;10.82;100.00
27712;BME280;2377;51.734;8.950;2023-02-22T09:38:04;97587.81;;;10.93;100.00
27712;BME280;2377;51.734;8.950;2023-02-22T09:40:35;97585.38;;;10.98;100.00
27712;BME280;2377;51.734;8.950;2023-02-22T09:43:26;97580.94;;;11.05;100.00
27712;BME280;2377;51.734;8.950;2023-02-22T09:46:13;97575.28;;;11.15;100.00
27712;BME280;2377;51.734;8.950;2023-02-22T09:48:59;97578.94;;;11.31;100.00
27712;BME280;2377;51.734;8.950;2023-02-22T09:51:33;97577.72;;;11.45;100.00
27712;BME280;2377;51.734;8.950;2023-02-22T09:54:12;97578.38;;;11.64;100.00
27712;BME280;2377;51.734;8.950;2023-02-22T09:56:45;97571.03;;;11.79;100.00
27712;BME280;2377;51.734;8.950;2023-02-22T09:59:22;97571.25;;;11.90;100.00
27712;BME280;2377;51.734;8.950;2023-02-22T10:02:01;97569.22;;;12.03;100.00
27712;BME280;2377;51.734;8.950;2023-02-22T10:04:40;97572.88;;;12.08;99.60
27712;BME280;2377;51.734;8.950;2023-02-22T10:07:19;97568.88;;;12.12;98.78
27712;BME280;2377;51.734;8.950;2023-02-22T10:09:52;97571.50;;;12.17;99.05
27712;BME280;2377;51.734;8.950;2023-02-22T10:12:29;97577.19;;;12.19;97.40
27712;BME280;2377;51.734;8.950;2023-02-22T10:15:41;97573.84;;;12.18;97.65
27712;BME280;2377;51.734;8.950;2023-02-22T10:18:49;97567.63;;;12.14;97.11
27712;BME280;2377;51.734;8.950;2023-02-22T10:21:48;97568.53;;;12.08;96.32
27712;BME280;2377;51.734;8.950;2023-02-22T10:24:37;97566.66;;;12.03;97.59
27712;BME280;2377;51.734;8.950;2023-02-22T10:27:17;97565.00;;;11.97;97.37
27712;BME280;2377;51.734;8.950;2023-02-22T10:29:51;97566.13;;;11.90;97.29
27712;BME280;2377;51.734;8.950;2023-02-22T10:32:28;97567.59;;;11.74;95.37
27712;BME280;2377;51.734;8.950;2023-02-22T10:35:01;97565.47;;;11.59;96.52
27712;BME280;2377;51.734;8.950;2023-02-22T10:37:32;97563.28;;;11.51;97.30
27712;BME280;2377;51.734;8.950;2023-02-22T10:40:12;97559.59;;;11.47;97.45
27712;BME280;2377;51.734;8.950;2023-02-22T10:42:42;97561.28;;;11.53;97.83
27712;BME280;2377;51.734;8.950;2023-02-22T10:45:20;97548.47;;;11.53;98.34
27712;BME280;2377;51.734;8.950;2023-02-22T10:47:50;97557.13;;;11.52;97.03
27712;BME280;2377;51.734;8.950;2023-02-22T10:50:22;97547.81;;;11.57;98.07
27712;BME280;2377;51.734;8.950;2023-02-22T10:52:49;97546.97;;;11.69;98.84
27712;BME280;2377;51.734;8.950;2023-02-22T10:55:16;97547.53;;;11.71;97.34
27712;BME280;2377;51.734;8.950;2023-02-22T10:57:47;97545.53;;;11.73;98.12
27712;BME280;2377;51.734;8.950;2023-02-22T11:00:19;97544.41;;;11.80;98.80
27712;BME280;2377;51.734;8.950;2023-02-22T11:02:53;97539.84;;;11.82;97.75
27712;BME280;2377;51.734;8.950;2023-02-22T11:05:34;97544.84;;;11.89;97.77
27712;BME280;2377;51.734;8.950;2023-02-22T11:08:23;97542.84;;;11.91;97.46
27712;BME280;2377;51.734;8.950;2023-02-22T11:10:54;97542.84;;;11.91;97.03
27712;BME280;2377;51.734;8.950;2023-02-22T11:13:28;97542.50;;;11.99;97.74
27712;BME280;2377;51.734;8.950;2023-02-22T11:15:59;97545.94;;;12.05;98.07
27712;BME280;2377;51.734;8.950;2023-02-22T11:18:32;97539.91;;;12.11;97.54
27712;BME280;2377;51.734;8.950;2023-02-22T11:21:05;97535.69;;;12.05;96.08
27712;BME280;2377;51.734;8.950;2023-02-22T11:23:36;97533.34;;;12.03;96.54
27712;BME280;2377;51.734;8.950;2023-02-22T11:26:10;97530.22;;;12.01;95.55
27712;BME280;2377;51.734;8.950;2023-02-22T11:28:42;97525.09;;;12.01;96.45
27712;BME280;2377;51.734;8.950;2023-02-22T11:31:17;97529.88;;;12.10;97.55
27712;BME280;2377;51.734;8.950;2023-02-22T11:33:53;97531.88;;;12.08;95.59
27712;BME280;2377;51.734;8.950;2023-02-22T11:36:37;97525.34;;;12.00;93.09
27712;BME280;2377;51.734;8.950;2023-02-22T11:39:21;97522.78;;;12.00;95.09
27712;BME280;2377;51.734;8.950;2023-02-22T11:41:49;97521.09;;;12.05;96.35
27712;BME280;2377;51.734;8.950;2023-02-22T11:44:25;97513.56;;;12.16;97.22
27712;BME280;2377;51.734;8.950;2023-02-22T11:46:56;97510.19;;;12.27;97.21
27712;BME280;2377;51.734;8.950;2023-02-22T11:49:33;97507.63;;;12.27;94.84
27712;BME280;2377;51.734;8.950;2023-02-22T11:52:18;97497.94;;;12.29;96.30
27712;BME280;2377;51.734;8.950;2023-02-22T11:55:12;97498.47;;;12.31;96.45
27712;BME280;2377;51.734;8.950;2023-02-22T11:58:00;97500.56;;;12.34;97.32
27712;BME280;2377;51.734;8.950;2023-02-22T12:00:54;97496.00;;;12.36;97.87
27712;BME280;2377;51.734;8.950;2023-02-22T12:04:17;97493.75;;;12.40;96.58
27712;BME280;2377;51.734;8.950;2023-02-22T12:07:01;97491.41;;;12.38;95.16
27712;BME280;2377;51.734;8.950;2023-02-22T12:09:43;97490.19;;;12.41;95.71
27712;BME280;2377;51.734;8.950;2023-02-22T12:12:23;97492.81;;;12.46;96.00
27712;BME280;2377;51.734;8.950;2023-02-22T12:15:00;97490.03;;;12.47;94.64
27712;BME280;2377;51.734;8.950;2023-02-22T12:17:43;97477.75;;;12.50;95.64
27712;BME280;2377;51.734;8.950;2023-02-22T12:20:18;97481.50;;;12.59;96.69
27712;BME280;2377;51.734;8.950;2023-02-22T12:23:03;97473.88;;;12.64;95.61
27712;BME280;2377;51.734;8.950;2023-02-22T12:25:37;97477.28;;;12.69;95.68
27712;BME280;2377;51.734;8.950;2023-02-22T12:28:17;97476.84;;;12.73;96.51
27712;BME280;2377;51.734;8.950;2023-02-22T12:30:57;97473.78;;;12.76;96.34
27712;BME280;2377;51.734;8.950;2023-02-22T12:33:49;97466.88;;;12.76;94.78
27712;BME280;2377;51.734;8.950;2023-02-22T12:36:24;97473.09;;;12.80;95.13
27712;BME280;2377;51.734;8.950;2023-02-22T12:39:03;97471.06;;;12.82;94.97
27712;BME280;2377;51.734;8.950;2023-02-22T12:41:43;97468.91;;;12.91;95.27
27712;BME280;2377;51.734;8.950;2023-02-22T12:44:19;97457.44;;;12.99;96.12
27712;BME280;2377;51.734;8.950;2023-02-22T12:46:50;97462.16;;;13.07;95.56
27712;BME280;2377;51.734;8.950;2023-02-22T12:49:27;97459.44;;;13.14;95.90
27712;BME280;2377;51.734;8.950;2023-02-22T12:52:03;97456.38;;;13.17;94.50
27712;BME280;2377;51.734;8.950;2023-02-22T12:54:45;97451.25;;;13.17;93.83
27712;BME280;2377;51.734;8.950;2023-02-22T12:57:24;97454.63;;;13.17;92.48
27712;BME280;2377;51.734;8.950;2023-02-22T13:00:00;97442.78;;;13.16;93.68
27712;BME280;2377;51.734;8.950;2023-02-22T13:02:35;97442.78;;;13.16;92.85
27712;BME280;2377;51.734;8.950;2023-02-22T13:05:05;97440.00;;;13.18;93.39
27712;BME280;2377;51.734;8.950;2023-02-22T13:07:43;97442.06;;;13.21;93.58
27712;BME280;2377;51.734;8.950;2023-02-22T13:13:42;97438.97;;;13.19;91.76
27712;BME280;2377;51.734;8.950;2023-02-22T13:16:30;97436.66;;;13.17;91.85
27712;BME280;2377;51.734;8.950;2023-02-22T13:19:10;97433.28;;;13.17;91.41
27712;BME280;2377;51.734;8.950;2023-02-22T13:21:52;97431.53;;;13.17;91.47
27712;BME280;2377;51.734;8.950;2023-02-22T13:24:28;97430.50;;;13.18;91.45
27712;BME280;2377;51.734;8.950;2023-02-22T13:27:04;97435.63;;;13.18;91.13
27712;BME280;2377;51.734;8.950;2023-02-22T13:29:39;97424.16;;;13.26;91.01
27712;BME280;2377;51.734;8.950;2023-02-22T13:32:30;97418.50;;;13.24;90.25
27712;BME280;2377;51.734;8.950;2023-02-22T13:35:29;97416.25;;;13.27;91.25
27712;BME280;2377;51.734;8.950;2023-02-22T13:41:55;97420.81;;;13.25;90.15
27712;BME280;2377;51.734;8.950;2023-02-22T13:44:58;97418.25;;;13.25;90.13
27712;BME280;2377;51.734;8.950;2023-02-22T13:48:05;97421.06;;;13.24;90.67
27712;BME280;2377;51.734;8.950;2023-02-22T13:51:06;97423.63;;;13.24;89.33